Sugar Land, TX (77498)

7:37 PM CDT on August 31, 2015 (GMT -0500)
Sugar Mill | | Change Station
CLOSE
Current Station
Personal Weather Station
Location: Sugar Land, TX
Elevation: 108 ft
Nearby Weather Stations

Elev 108 ft 29.63 °N, 95.63 °W | Updated 12 seconds ago

Partly Cloudy
Partly Cloudy
80.2 °F
Feels Like 84 °F
N
0.9
Wind Variable Wind from East
Gusts 1.0 mph

Today
High -- | Low -- °F
--% Chance of Precip.
Yesterday
High -- | Low -- °F
Precip. -- in
6:59 AM 7:46 PM
Waning Gibbous, 92% visible
Pressure 29.98 in
Visibility 10.0 miles
Clouds Few 2500 ft
Heat Index 84 °F
Dew Point 72 °F
Humidity 76%
Rainfall in
Snow Depth Not available.
UV 0 out of 12
Pollen 6.00 out of 12
Air Quality Not available.
Flu Activity Not available.
METAR KSGR 312353Z AUTO 11011G18KT 10SM FEW025 28/22 A2997 RMK AO2 SLP150 T02780217 10306 20267 58009
Pressure 29.98 in
Visibility 10.0 miles
Clouds Few 2500 ft
Heat Index 84 °F
Dew Point 72 °F
Humidity 76%
Rainfall in
Snow Depth Not available.
UV 0 out of 12
Pollen 6.00 out of 12
Air Quality Not available.
Flu Activity Not available.
METAR KSGR 312353Z AUTO 11011G18KT 10SM FEW025 28/22 A2997 RMK AO2 SLP150 T02780217 10306 20267 58009

10-Day Weather Forecast

×

Almanac

Astronomy

Aug. 31, 2015 Rise Set
Actual Time
Civil Twilight
Nautical Twilight
Astronomical Twilight
Moon
Length of Visible Light
Length of Day
Tomorrow will be .
, % of the Moon is Illuminated

Today's Extremes

State Highs State Lows

Community

WunderPhotos

Upload Photos

1,851,406 photos uploaded!

WunderBlogs® & News

Nearby

Air Quality

  Air Quality AQ Index Pollutant
Not available.

Snow Depth

Station Depth Elevation

Earthquake Activity

City Distance Mag. Time & Date
Minimum magnitude displayed is 2.5.

Coastal Water Temperatures

Place Temperature

Stations

Nearby Weather Stations

Station Location Temp. Windchill Dew Point Humidity Wind Precip. Elev Updated Type